MA78 weather

Russell Mill Pond Seaplane Base
Plymouth, Massachusetts, United States

Public forecast

Using degrees Fahrenheit for public forecast. Weather courtesy of forecast.io.

Closest aviation weather report (METAR) to Russell Mill Pond Seaplane Base

Closest report is Plymouth Municipal Airport, 4.5 nm (8.4 km) W. Retrieved 2019/10/23 19:52 UTC (19 minutes ago):

KPYM 231952Z AUTO 29009G22KT 10SM CLR 19/06 A2985 RMK AO2 SLP107 T01890061

Closest aviation forecast (TAF) to Russell Mill Pond Seaplane Base

Closest forecast is Cape Cod Coast Guard Air Station, 16.3 nm (30.2 km) SSE. Retrieved 2019/10/23 18:36 UTC (2 hours ago):

TAF KFMH 231733Z 2318/2418 30011G22KT P6SM SCT025 FM232100 28009KT P6SM FEW040 FM241400 26006KT P6SM SKC FM241600 24007KT P6SM SKC